Time;durP1;ratioP1;P1;durP2;ratioP2;P2;SDS_P1;SDS_P2;PMS_P1;PMS_P2;Temp;Humidity;BMP_temperature;BMP_pressure;BME280_temperature;BME280_humidity;BME280_pressure;Samples;Min_cycle;Max_cycle;Signal;HPM_P1;HPM_P2
2023/04/20 00:01:02;;;;;;;;;;;7.50;99.90;;;;;;5087616;28;19995;-63
2023/04/20 00:03:28;;;;;;;;;;;7.40;99.90;;;;;;5081492;28;19965;-61
2023/04/20 00:05:53;;;;;;;;;;;7.30;99.90;;;;;;5077290;28;20350;-62
2023/04/20 00:08:19;;;;;;;;;;;7.30;99.90;;;;;;5074925;28;19921;-61
2023/04/20 00:10:45;;;;;;;;;;;7.40;99.90;;;;;;5071986;28;20395;-61
2023/04/20 00:13:11;;;;;;;;;;;7.40;99.90;;;;;;5067472;28;20022;-62
2023/04/20 00:15:36;;;;;;;;;;;7.30;99.90;;;;;;5071062;28;19916;-61
2023/04/20 00:18:02;;;;;;;;;;;7.20;99.90;;;;;;5071437;28;19940;-62
2023/04/20 00:20:28;;;;;;;;;;;7.10;99.90;;;;;;5067833;28;20000;-61
2023/04/20 00:22:53;;;;;;;;;;;7.10;99.90;;;;;;5061803;28;19913;-62
2023/04/20 00:25:19;;;;;;;;;;;7.10;99.90;;;;;;5080742;28;19912;-61
2023/04/20 00:27:45;;;;;;;;;;;7.10;99.90;;;;;;5076075;28;19920;-62
2023/04/20 00:30:11;;;;;;;;;;;7.10;99.90;;;;;;5074064;28;19964;-60
2023/04/20 00:32:37;;;;;;;;;;;7.10;99.90;;;;;;5065614;28;19912;-62
2023/04/20 00:35:03;;;;;;;;;;;7.20;99.90;;;;;;5071445;28;19913;-62
2023/04/20 00:37:28;;;;;;;;;;;7.20;99.90;;;;;;5067803;28;19924;-61
2023/04/20 00:39:54;;;;;;;;;;;7.10;99.90;;;;;;5083283;28;19917;-63
2023/04/20 00:42:20;;;;;;;;;;;7.10;99.90;;;;;;5057937;28;20322;-63
2023/04/20 00:44:45;;;;;;;;;;;7.10;99.90;;;;;;5078733;28;19920;-62
2023/04/20 00:47:11;;;;;;;;;;;7.10;99.90;;;;;;5068742;28;19927;-62
2023/04/20 00:49:36;;;;;;;;;;;7.10;99.90;;;;;;5077834;28;20001;-63
2023/04/20 00:52:02;;;;;;;;;;;7.10;99.90;;;;;;5069798;28;19913;-62
2023/04/20 00:54:28;;;;;;;;;;;7.00;99.90;;;;;;5081318;28;19916;-63
2023/04/20 00:56:55;;;;;;;;;;;6.80;99.90;;;;;;5071771;28;19935;-61
2023/04/20 00:59:21;;;;;;;;;;;6.70;99.90;;;;;;5076083;28;19916;-60
2023/04/20 01:01:46;;;;;;;;;;;6.60;99.90;;;;;;5072051;28;19923;-62
2023/04/20 01:04:12;;;;;;;;;;;6.50;99.90;;;;;;5073559;28;19958;-63
2023/04/20 01:06:37;;;;;;;;;;;6.50;99.90;;;;;;5075125;28;19912;-62
2023/04/20 01:09:03;;;;;;;;;;;6.30;99.90;;;;;;5062148;28;20367;-62
2023/04/20 01:11:29;;;;;;;;;;;6.30;99.90;;;;;;5065248;28;20000;-61
2023/04/20 01:13:54;;;;;;;;;;;6.30;99.90;;;;;;5061354;28;20396;-64
2023/04/20 01:16:21;;;;;;;;;;;6.40;99.90;;;;;;5065006;28;19920;-62
2023/04/20 01:18:48;;;;;;;;;;;6.40;99.90;;;;;;5077437;28;19965;-63
2023/04/20 01:21:15;;;;;;;;;;;6.50;99.90;;;;;;5078953;28;19912;-60
2023/04/20 01:23:41;;;;;;;;;;;6.50;99.90;;;;;;5081628;28;20347;-63
2023/04/20 01:26:07;;;;;;;;;;;6.50;99.90;;;;;;5079984;28;19913;-62
2023/04/20 01:28:33;;;;;;;;;;;6.40;99.90;;;;;;5075955;28;20255;-61
2023/04/20 01:30:58;;;;;;;;;;;6.40;99.90;;;;;;5071677;28;19923;-61
2023/04/20 01:33:24;;;;;;;;;;;6.40;99.90;;;;;;5071004;28;19912;-61
2023/04/20 01:35:51;;;;;;;;;;;6.30;99.90;;;;;;5077246;28;19935;-63
2023/04/20 01:38:17;;;;;;;;;;;6.20;99.90;;;;;;5071502;28;19935;-61
2023/04/20 01:40:43;;;;;;;;;;;6.20;99.90;;;;;;5075151;28;19954;-60
2023/04/20 01:43:09;;;;;;;;;;;6.20;99.90;;;;;;5069430;28;19917;-61
2023/04/20 01:45:34;;;;;;;;;;;6.20;99.90;;;;;;5074998;28;19913;-62
2023/04/20 01:48:00;;;;;;;;;;;6.20;99.90;;;;;;5069460;28;20012;-62
2023/04/20 01:50:26;;;;;;;;;;;6.30;99.90;;;;;;5083165;28;19947;-60
2023/04/20 01:52:51;;;;;;;;;;;6.20;99.90;;;;;;5062728;28;19951;-62
2023/04/20 01:55:17;;;;;;;;;;;6.10;99.90;;;;;;5088330;28;20391;-62
2023/04/20 01:57:43;;;;;;;;;;;6.00;99.90;;;;;;5084408;28;20371;-62
2023/04/20 02:00:10;;;;;;;;;;;6.00;99.90;;;;;;5077355;28;19920;-62
2023/04/20 02:02:35;;;;;;;;;;;5.90;99.90;;;;;;5067379;28;19991;-62
2023/04/20 02:05:01;;;;;;;;;;;6.00;99.90;;;;;;5073546;28;20016;-62
2023/04/20 02:07:27;;;;;;;;;;;6.00;99.90;;;;;;5080753;28;19923;-62
2023/04/20 02:09:52;;;;;;;;;;;6.00;99.90;;;;;;5079187;28;20391;-61
2023/04/20 02:12:18;;;;;;;;;;;5.90;99.90;;;;;;5074935;28;19961;-62
2023/04/20 02:14:43;;;;;;;;;;;5.90;99.90;;;;;;5068926;28;19973;-62
2023/04/20 02:17:09;;;;;;;;;;;5.90;99.90;;;;;;5080200;28;19913;-62
2023/04/20 02:19:35;;;;;;;;;;;6.00;99.90;;;;;;5081094;28;20003;-63
2023/04/20 02:22:01;;;;;;;;;;;6.00;99.90;;;;;;5066208;28;19917;-61
2023/04/20 02:24:26;;;;;;;;;;;5.90;99.90;;;;;;5073661;28;20375;-62
2023/04/20 02:26:52;;;;;;;;;;;5.80;99.90;;;;;;5066291;28;19956;-58
2023/04/20 02:29:17;;;;;;;;;;;5.70;99.90;;;;;;5076279;28;19935;-61
2023/04/20 02:31:43;;;;;;;;;;;5.80;99.90;;;;;;5072684;28;19976;-62
2023/04/20 02:34:09;;;;;;;;;;;6.00;99.90;;;;;;5068255;28;19943;-61
2023/04/20 02:36:35;;;;;;;;;;;6.00;99.90;;;;;;5065458;28;19919;-61
2023/04/20 02:39:01;;;;;;;;;;;6.10;99.90;;;;;;5077254;28;19916;-61
2023/04/20 02:41:26;;;;;;;;;;;6.20;99.90;;;;;;5078785;28;19912;-62
2023/04/20 02:43:52;;;;;;;;;;;6.00;99.90;;;;;;5062256;28;19920;-61
2023/04/20 02:46:17;;;;;;;;;;;6.10;99.90;;;;;;5070181;28;19917;-61
2023/04/20 02:48:43;;;;;;;;;;;6.10;99.90;;;;;;5079469;28;19928;-62
2023/04/20 02:51:09;;;;;;;;;;;6.10;99.90;;;;;;5080880;28;20256;-61
2023/04/20 02:53:34;;;;;;;;;;;6.10;99.90;;;;;;5074934;28;19912;-64
2023/04/20 02:56:00;;;;;;;;;;;6.10;99.90;;;;;;5080320;28;19916;-62
2023/04/20 02:58:26;;;;;;;;;;;6.10;99.90;;;;;;5075463;28;19919;-61
2023/04/20 03:00:57;;;;;;;;;;;6.10;99.90;;;;;;5077153;28;19966;-61
2023/04/20 03:03:23;;;;;;;;;;;6.00;99.90;;;;;;5084074;28;20295;-61
2023/04/20 03:05:48;;;;;;;;;;;6.00;99.90;;;;;;5074661;28;19935;-63
2023/04/20 03:08:14;;;;;;;;;;;6.10;99.90;;;;;;5070200;28;19921;-61
2023/04/20 03:10:39;;;;;;;;;;;6.10;99.90;;;;;;5068760;28;19913;-61
2023/04/20 03:13:05;;;;;;;;;;;6.00;99.90;;;;;;5078153;28;20257;-62
2023/04/20 03:15:31;;;;;;;;;;;6.00;99.90;;;;;;5066410;28;20479;-62
2023/04/20 03:17:56;;;;;;;;;;;6.00;99.90;;;;;;5079838;28;19912;-62
2023/04/20 03:20:22;;;;;;;;;;;6.00;99.90;;;;;;5076032;28;19912;-61
2023/04/20 03:22:47;;;;;;;;;;;6.00;99.90;;;;;;5069548;28;20360;-61
2023/04/20 03:25:13;;;;;;;;;;;6.00;99.90;;;;;;5069006;28;20248;-62
2023/04/20 03:27:38;;;;;;;;;;;6.00;99.90;;;;;;5077317;28;19916;-61
2023/04/20 03:30:04;;;;;;;;;;;6.00;99.90;;;;;;5074619;28;20019;-61
2023/04/20 03:32:30;;;;;;;;;;;6.00;99.90;;;;;;5077326;28;19919;-62
2023/04/20 03:34:55;;;;;;;;;;;5.80;99.90;;;;;;5074903;28;19913;-61
2023/04/20 03:37:21;;;;;;;;;;;5.90;99.90;;;;;;5071430;28;20011;-61
2023/04/20 03:39:47;;;;;;;;;;;5.90;99.90;;;;;;5063561;28;19919;-62
2023/04/20 03:42:12;;;;;;;;;;;5.90;99.90;;;;;;5069689;28;19958;-62
2023/04/20 03:44:38;;;;;;;;;;;5.90;99.90;;;;;;5078259;28;20292;-62
2023/04/20 03:47:03;;;;;;;;;;;5.90;99.90;;;;;;5073169;28;19917;-61
2023/04/20 03:49:29;;;;;;;;;;;6.00;99.90;;;;;;5069191;28;19947;-60
2023/04/20 03:51:55;;;;;;;;;;;6.00;99.90;;;;;;5067031;28;19977;-61
2023/04/20 03:54:20;;;;;;;;;;;6.00;99.90;;;;;;5065428;28;19928;-61
2023/04/20 03:56:48;;;;;;;;;;;6.00;99.90;;;;;;5067993;28;20483;-62
2023/04/20 03:59:14;;;;;;;;;;;6.00;99.90;;;;;;5056111;28;19912;-61
2023/04/20 04:01:41;;;;;;;;;;;6.00;99.90;;;;;;5065011;28;20030;-61
2023/04/20 04:04:06;;;;;;;;;;;6.00;99.90;;;;;;5075410;28;19920;-61
2023/04/20 04:06:32;;;;;;;;;;;5.90;99.90;;;;;;5061810;28;19917;-61
2023/04/20 04:08:57;;;;;;;;;;;5.80;99.90;;;;;;5065743;28;19920;-61
2023/04/20 04:11:24;;;;;;;;;;;5.90;99.90;;;;;;5076770;28;19912;-61
2023/04/20 04:13:49;;;;;;;;;;;5.80;99.90;;;;;;5072177;28;19912;-62
2023/04/20 04:16:15;;;;;;;;;;;5.80;99.90;;;;;;5068569;28;20229;-60
2023/04/20 04:18:42;;;;;;;;;;;5.70;99.90;;;;;;5062063;28;19935;-60
2023/04/20 04:21:09;;;;;;;;;;;5.60;99.90;;;;;;5068709;28;20364;-61
2023/04/20 04:23:36;;;;;;;;;;;5.60;99.90;;;;;;5062571;28;19919;-60
2023/04/20 04:26:01;;;;;;;;;;;5.50;99.90;;;;;;5074786;28;19958;-62
2023/04/20 04:28:27;;;;;;;;;;;5.50;99.90;;;;;;5072665;28;19960;-62
2023/04/20 04:30:53;;;;;;;;;;;5.40;99.90;;;;;;5075410;28;20395;-63
2023/04/20 04:33:19;;;;;;;;;;;5.40;99.90;;;;;;5070482;28;19935;-62
2023/04/20 04:35:45;;;;;;;;;;;5.40;99.90;;;;;;5070303;28;19913;-62
2023/04/20 04:38:12;;;;;;;;;;;5.30;99.90;;;;;;5065650;28;19916;-61
2023/04/20 04:40:38;;;;;;;;;;;5.30;99.90;;;;;;5058230;28;20382;-63
2023/04/20 04:43:03;;;;;;;;;;;5.40;99.90;;;;;;5062069;28;19931;-61
2023/04/20 04:45:29;;;;;;;;;;;5.40;99.90;;;;;;5074304;28;19920;-61
2023/04/20 04:47:55;;;;;;;;;;;5.50;99.90;;;;;;5069753;28;20054;-61
2023/04/20 04:50:21;;;;;;;;;;;5.50;99.90;;;;;;5068252;28;19938;-62
2023/04/20 04:52:47;;;;;;;;;;;5.50;99.90;;;;;;5056105;28;20436;-61
2023/04/20 04:55:12;;;;;;;;;;;5.40;99.90;;;;;;5064194;28;20003;-61
2023/04/20 04:57:38;;;;;;;;;;;5.40;99.90;;;;;;5051152;28;19916;-61
2023/04/20 05:00:08;;;;;;;;;;;5.40;99.90;;;;;;5054089;28;19913;-61
2023/04/20 05:02:34;;;;;;;;;;;5.30;99.90;;;;;;5072916;28;19952;-61
2023/04/20 05:05:00;;;;;;;;;;;5.30;99.90;;;;;;5069113;28;19974;-61
2023/04/20 05:07:25;;;;;;;;;;;5.30;99.90;;;;;;5068649;28;19912;-61
2023/04/20 05:09:51;;;;;;;;;;;5.30;99.90;;;;;;5068963;28;19962;-60
2023/04/20 05:12:18;;;;;;;;;;;5.20;99.90;;;;;;5073501;28;19958;-61
2023/04/20 05:14:43;;;;;;;;;;;5.30;99.90;;;;;;5067891;28;19956;-62
2023/04/20 05:17:09;;;;;;;;;;;5.40;99.90;;;;;;5063555;28;19944;-61
2023/04/20 05:19:35;;;;;;;;;;;5.40;99.90;;;;;;5075464;28;20007;-61
2023/04/20 05:22:00;;;;;;;;;;;5.30;99.90;;;;;;5070106;28;20031;-61
2023/04/20 05:24:26;;;;;;;;;;;5.50;99.90;;;;;;5071081;28;19913;-62
2023/04/20 05:26:51;;;;;;;;;;;5.50;99.90;;;;;;5077013;28;19913;-63
2023/04/20 05:29:17;;;;;;;;;;;5.50;99.90;;;;;;5068866;28;19966;-62
2023/04/20 05:31:43;;;;;;;;;;;5.50;99.90;;;;;;5067856;28;19912;-61
2023/04/20 05:34:09;;;;;;;;;;;5.50;99.90;;;;;;5066598;28;19916;-61
2023/04/20 05:36:36;;;;;;;;;;;5.50;99.90;;;;;;5066468;28;20261;-61
2023/04/20 05:39:01;;;;;;;;;;;5.50;99.90;;;;;;5063078;28;19917;-62
2023/04/20 05:41:27;;;;;;;;;;;5.60;99.90;;;;;;5071116;28;20288;-61
2023/04/20 05:43:53;;;;;;;;;;;5.70;99.90;;;;;;5061483;28;19981;-62
2023/04/20 05:46:19;;;;;;;;;;;5.80;99.90;;;;;;5070373;28;19919;-62
2023/04/20 05:48:45;;;;;;;;;;;5.80;99.90;;;;;;5065926;28;20468;-62
2023/04/20 05:51:11;;;;;;;;;;;5.80;99.90;;;;;;5060224;28;19917;-63
2023/04/20 05:53:36;;;;;;;;;;;5.80;99.90;;;;;;5070749;28;19912;-62
2023/04/20 05:56:02;;;;;;;;;;;5.80;99.90;;;;;;5072007;28;19913;-63
2023/04/20 05:58:28;;;;;;;;;;;5.90;99.90;;;;;;5064264;28;19912;-62
2023/04/20 06:00:54;;;;;;;;;;;5.90;99.90;;;;;;5075506;28;19924;-62
2023/04/20 06:03:20;;;;;;;;;;;6.00;99.90;;;;;;5070029;28;19965;-61
2023/04/20 06:05:45;;;;;;;;;;;6.00;99.90;;;;;;5070037;28;19913;-61
2023/04/20 06:08:11;;;;;;;;;;;6.00;99.90;;;;;;5063205;28;19932;-62
2023/04/20 06:10:37;;;;;;;;;;;6.00;99.90;;;;;;5060165;28;19916;-62
2023/04/20 06:13:02;;;;;;;;;;;6.00;99.90;;;;;;5064471;28;19920;-62
2023/04/20 06:15:28;;;;;;;;;;;6.10;99.90;;;;;;5066797;28;19916;-62
2023/04/20 06:17:54;;;;;;;;;;;6.10;99.90;;;;;;5075642;28;19942;-62
2023/04/20 06:20:19;;;;;;;;;;;6.20;99.90;;;;;;5069988;28;19965;-60
2023/04/20 06:22:45;;;;;;;;;;;6.20;99.90;;;;;;5073975;28;20376;-62
2023/04/20 06:25:12;;;;;;;;;;;6.20;99.90;;;;;;5068057;28;19921;-62
2023/04/20 06:27:38;;;;;;;;;;;6.20;99.90;;;;;;5055909;28;19916;-63
2023/04/20 06:30:04;;;;;;;;;;;6.30;99.90;;;;;;5079523;28;19920;-63
2023/04/20 06:32:30;;;;;;;;;;;6.40;99.90;;;;;;5071002;28;19912;-62
2023/04/20 06:34:56;;;;;;;;;;;6.50;99.90;;;;;;5081035;28;19928;-62
2023/04/20 06:37:21;;;;;;;;;;;6.60;99.90;;;;;;5080568;28;19916;-62
2023/04/20 06:39:47;;;;;;;;;;;6.60;99.90;;;;;;5071489;28;19920;-60
2023/04/20 06:42:12;;;;;;;;;;;6.60;99.90;;;;;;5073315;28;19922;-62
2023/04/20 06:44:39;;;;;;;;;;;6.80;99.90;;;;;;5082166;28;19920;-62
2023/04/20 06:47:04;;;;;;;;;;;6.80;99.90;;;;;;5073457;28;19913;-62
2023/04/20 06:49:30;;;;;;;;;;;6.90;99.90;;;;;;5063543;28;19928;-63
2023/04/20 06:51:55;;;;;;;;;;;6.90;99.90;;;;;;5069155;28;20695;-62
2023/04/20 06:54:21;;;;;;;;;;;6.90;99.90;;;;;;5066722;28;19917;-63
2023/04/20 06:56:47;;;;;;;;;;;7.00;99.90;;;;;;5071426;28;19919;-62
2023/04/20 06:59:15;;;;;;;;;;;7.00;99.90;;;;;;5061710;28;19920;-62
2023/04/20 07:01:40;;;;;;;;;;;7.00;99.90;;;;;;5064989;28;19943;-63
2023/04/20 07:04:06;;;;;;;;;;;7.10;99.90;;;;;;5067665;28;20400;-63
2023/04/20 07:06:32;;;;;;;;;;;7.10;99.90;;;;;;5066050;28;20383;-63
2023/04/20 07:08:57;;;;;;;;;;;7.20;99.90;;;;;;5068737;28;19920;-62
2023/04/20 07:11:23;;;;;;;;;;;7.20;99.90;;;;;;5066091;28;19919;-62
2023/04/20 07:13:48;;;;;;;;;;;7.20;99.90;;;;;;5058943;28;19916;-62
2023/04/20 07:16:15;;;;;;;;;;;7.30;99.90;;;;;;5069368;28;19913;-63
2023/04/20 07:18:40;;;;;;;;;;;7.40;99.90;;;;;;5067927;28;19959;-62
2023/04/20 07:21:06;;;;;;;;;;;7.40;99.90;;;;;;5068711;28;19912;-61
2023/04/20 07:23:31;;;;;;;;;;;7.50;99.90;;;;;;5068108;28;19931;-63
2023/04/20 07:25:57;;;;;;;;;;;7.60;99.90;;;;;;5065152;28;19916;-63
2023/04/20 07:28:22;;;;;;;;;;;7.70;99.90;;;;;;5069201;28;19987;-62
2023/04/20 07:30:48;;;;;;;;;;;7.70;99.90;;;;;;5067910;28;19919;-62
2023/04/20 07:33:14;;;;;;;;;;;7.80;99.90;;;;;;5067175;28;20303;-61
2023/04/20 07:35:39;;;;;;;;;;;8.00;99.90;;;;;;5067446;28;19924;-61
2023/04/20 07:38:05;;;;;;;;;;;8.10;99.90;;;;;;5065275;28;19912;-62
2023/04/20 07:40:30;;;;;;;;;;;8.20;99.90;;;;;;5068448;28;20549;-62
2023/04/20 07:42:56;;;;;;;;;;;8.30;99.90;;;;;;5062638;28;19924;-61
2023/04/20 07:45:22;;;;;;;;;;;8.30;99.90;;;;;;5071561;28;19927;-63
2023/04/20 07:47:50;;;;;;;;;;;8.30;99.90;;;;;;5067799;28;19916;-61
2023/04/20 07:50:16;;;;;;;;;;;8.40;99.90;;;;;;5067680;28;19912;-61
2023/04/20 07:52:43;;;;;;;;;;;8.60;99.90;;;;;;5066933;28;19913;-62
2023/04/20 07:55:10;;;;;;;;;;;8.70;99.90;;;;;;5069787;28;20019;-62
2023/04/20 07:57:36;;;;;;;;;;;8.70;99.90;;;;;;5067985;28;20319;-62
2023/04/20 08:00:05;;;;;;;;;;;8.80;99.90;;;;;;5070666;28;19920;-62
2023/04/20 08:02:31;;;;;;;;;;;9.00;99.90;;;;;;5066608;28;19921;-62
2023/04/20 08:04:56;;;;;;;;;;;9.00;99.90;;;;;;5067967;28;19919;-62
2023/04/20 08:07:22;;;;;;;;;;;9.00;99.90;;;;;;5070857;28;19912;-61
2023/04/20 08:09:48;;;;;;;;;;;9.10;99.90;;;;;;5070009;28;20045;-62
2023/04/20 08:12:14;;;;;;;;;;;9.30;99.90;;;;;;5066361;28;20428;-61
2023/04/20 08:14:40;;;;;;;;;;;9.50;99.90;;;;;;5068544;28;20276;-62
2023/04/20 08:17:06;;;;;;;;;;;9.60;99.90;;;;;;5066095;28;19912;-63
2023/04/20 08:19:32;;;;;;;;;;;9.70;99.90;;;;;;5062925;28;20280;-63
2023/04/20 08:21:57;;;;;;;;;;;9.90;99.90;;;;;;5062936;28;19919;-62
2023/04/20 08:24:23;;;;;;;;;;;9.90;99.90;;;;;;5067864;28;19942;-62
2023/04/20 08:26:48;;;;;;;;;;;9.80;99.90;;;;;;5077392;28;19912;-63
2023/04/20 08:29:14;;;;;;;;;;;9.90;99.90;;;;;;5062093;28;20054;-61
2023/04/20 08:31:39;;;;;;;;;;;10.00;99.90;;;;;;5070498;28;19924;-62
2023/04/20 08:34:05;;;;;;;;;;;10.20;99.90;;;;;;5072640;28;19920;-62
2023/04/20 08:36:31;;;;;;;;;;;10.40;99.90;;;;;;5063170;28;20070;-61
2023/04/20 08:39:05;;;;;;;;;;;10.60;99.90;;;;;;5067905;28;19913;-61
2023/04/20 08:41:30;;;;;;;;;;;10.80;99.90;;;;;;5066034;28;19913;-62
2023/04/20 08:43:56;;;;;;;;;;;11.00;99.90;;;;;;5059020;28;20136;-61
2023/04/20 08:46:22;;;;;;;;;;;11.10;99.90;;;;;;5068520;28;19916;-63
2023/04/20 08:48:48;;;;;;;;;;;11.30;99.90;;;;;;5064688;28;19920;-63
2023/04/20 08:51:14;;;;;;;;;;;11.40;99.90;;;;;;5063746;28;20013;-61
2023/04/20 08:53:40;;;;;;;;;;;11.40;99.90;;;;;;5068284;28;20348;-62
2023/04/20 08:56:06;;;;;;;;;;;11.50;99.90;;;;;;5068728;28;19920;-62
2023/04/20 08:58:32;;;;;;;;;;;11.50;99.90;;;;;;5067873;28;19923;-62
2023/04/20 09:01:00;;;;;;;;;;;11.70;99.90;;;;;;5067672;28;20007;-62
2023/04/20 09:03:36;;;;;;;;;;;11.80;99.90;;;;;;5065294;28;19913;-61
2023/04/20 09:06:03;;;;;;;;;;;11.90;99.90;;;;;;5069017;28;19916;-62
2023/04/20 09:08:35;;;;;;;;;;;11.90;99.90;;;;;;5065734;28;19924;-62
2023/04/20 09:11:01;;;;;;;;;;;12.00;99.90;;;;;;5067066;28;19926;-62
2023/04/20 09:13:27;;;;;;;;;;;12.20;99.90;;;;;;5064218;28;20280;-62
2023/04/20 09:15:52;;;;;;;;;;;12.30;99.90;;;;;;5063882;28;19995;-63
2023/04/20 09:18:18;;;;;;;;;;;12.30;99.90;;;;;;5065181;28;19913;-61
2023/04/20 09:20:43;;;;;;;;;;;12.40;99.90;;;;;;5065949;28;20481;-63
2023/04/20 09:23:13;;;;;;;;;;;12.80;99.90;;;;;;5066818;28;19966;-62
2023/04/20 09:25:39;;;;;;;;;;;13.20;99.90;;;;;;5064891;28;19913;-62
2023/04/20 09:28:05;;;;;;;;;;;13.50;99.90;;;;;;5067380;28;19928;-62
2023/04/20 09:30:40;;;;;;;;;;;13.90;99.90;;;;;;5066120;28;20364;-61
2023/04/20 09:33:11;;;;;;;;;;;14.10;99.90;;;;;;5069140;28;19912;-62
2023/04/20 09:35:38;;;;;;;;;;;14.20;99.90;;;;;;5063182;28;19920;-62
2023/04/20 09:38:04;;;;;;;;;;;14.30;99.90;;;;;;5068618;28;19919;-63
2023/04/20 09:40:31;;;;;;;;;;;14.30;99.90;;;;;;5067868;28;20015;-61
2023/04/20 09:42:58;;;;;;;;;;;14.50;99.90;;;;;;5063473;28;19965;-60
2023/04/20 09:45:24;;;;;;;;;;;14.80;99.90;;;;;;5067448;28;19927;-62
2023/04/20 09:47:51;;;;;;;;;;;15.10;99.20;;;;;;5066721;28;19942;-62
2023/04/20 09:50:17;;;;;;;;;;;15.00;96.70;;;;;;5066650;28;20360;-62
2023/04/20 09:52:44;;;;;;;;;;;14.80;96.60;;;;;;5064291;28;19931;-62
2023/04/20 09:55:10;;;;;;;;;;;14.50;95.30;;;;;;5068922;28;19912;-62
2023/04/20 09:57:37;;;;;;;;;;;14.10;96.80;;;;;;5061904;28;19913;-62
2023/04/20 10:00:05;;;;;;;;;;;13.80;96.20;;;;;;5071348;28;19919;-62
2023/04/20 10:02:31;;;;;;;;;;;13.70;99.80;;;;;;5069923;28;19912;-63
2023/04/20 10:04:57;;;;;;;;;;;13.70;99.90;;;;;;5069961;28;19920;-61
2023/04/20 10:07:25;;;;;;;;;;;13.60;99.90;;;;;;5068340;28;19923;-63
2023/04/20 10:10:01;;;;;;;;;;;13.70;99.90;;;;;;5069580;28;20383;-62
2023/04/20 10:12:27;;;;;;;;;;;14.10;99.90;;;;;;5064715;28;19912;-62
2023/04/20 10:15:00;;;;;;;;;;;14.30;99.20;;;;;;5068737;28;19916;-61
2023/04/20 10:17:32;;;;;;;;;;;14.50;98.10;;;;;;5072074;28;19919;-62
2023/04/20 10:19:58;;;;;;;;;;;14.80;96.10;;;;;;5076359;28;20371;-61
2023/04/20 10:22:33;;;;;;;;;;;14.90;92.70;;;;;;5064132;28;19916;-62
2023/04/20 10:25:01;;;;;;;;;;;15.00;91.50;;;;;;5069986;28;19912;-62
2023/04/20 10:27:26;;;;;;;;;;;15.20;90.70;;;;;;5074185;28;19935;-62
2023/04/20 10:29:52;;;;;;;;;;;15.30;89.90;;;;;;5069543;28;20300;-62
2023/04/20 10:32:25;;;;;;;;;;;15.30;90.50;;;;;;5067253;28;20317;-63
2023/04/20 10:35:00;;;;;;;;;;;15.50;91.20;;;;;;5067475;28;19987;-62
2023/04/20 10:37:26;;;;;;;;;;;15.50;92.90;;;;;;5066084;28;19927;-62
2023/04/20 10:39:52;;;;;;;;;;;15.90;93.80;;;;;;5066942;28;19992;-61
2023/04/20 10:42:17;;;;;;;;;;;16.20;90.40;;;;;;5065402;28;20273;-61
2023/04/20 10:44:46;;;;;;;;;;;16.40;82.50;;;;;;5069542;28;19976;-63
2023/04/20 10:47:13;;;;;;;;;;;16.90;78.50;;;;;;5071299;28;19962;-62
2023/04/20 10:49:39;;;;;;;;;;;17.20;77.60;;;;;;5067492;28;20272;-62
2023/04/20 10:52:05;;;;;;;;;;;17.10;77.00;;;;;;5066666;28;20333;-62
2023/04/20 10:54:40;;;;;;;;;;;16.90;77.90;;;;;;5071114;28;19967;-62
2023/04/20 10:57:06;;;;;;;;;;;16.30;69.20;;;;;;5065614;28;19920;-62
2023/04/20 10:59:33;;;;;;;;;;;16.00;71.40;;;;;;5063415;28;20283;-61
2023/04/20 11:02:00;;;;;;;;;;;16.30;71.90;;;;;;5069990;28;19913;-62
2023/04/20 11:04:30;;;;;;;;;;;16.20;70.60;;;;;;5065713;28;20004;-63
2023/04/20 11:07:03;;;;;;;;;;;16.40;72.60;;;;;;5066274;28;19913;-63
2023/04/20 11:09:29;;;;;;;;;;;16.70;73.90;;;;;;5066044;28;19927;-62
2023/04/20 11:11:58;;;;;;;;;;;16.70;70.80;;;;;;5059858;28;19912;-59
2023/04/20 11:14:24;;;;;;;;;;;16.60;69.90;;;;;;5052861;28;20376;-63
2023/04/20 11:16:51;;;;;;;;;;;16.60;67.90;;;;;;5051533;28;19969;-62
2023/04/20 11:19:21;;;;;;;;;;;16.60;65.80;;;;;;5062290;28;19921;-63
2023/04/20 11:21:47;;;;;;;;;;;16.90;68.20;;;;;;5064569;28;19917;-62
2023/04/20 11:24:19;;;;;;;;;;;16.90;70.00;;;;;;5068716;28;19918;-62
2023/04/20 11:26:45;;;;;;;;;;;17.00;68.20;;;;;;5066104;28;20443;-62
2023/04/20 11:29:10;;;;;;;;;;;17.40;67.90;;;;;;5066566;28;20015;-63
2023/04/20 11:31:36;;;;;;;;;;;17.40;63.50;;;;;;5062478;28;19966;-63
2023/04/20 11:34:02;;;;;;;;;;;17.50;63.00;;;;;;5066303;28;21134;-62
2023/04/20 11:36:28;;;;;;;;;;;17.50;63.40;;;;;;5068880;28;19962;-62
2023/04/20 11:38:54;;;;;;;;;;;17.80;66.20;;;;;;5066344;28;19962;-62
2023/04/20 11:41:20;;;;;;;;;;;17.80;64.90;;;;;;5060958;28;19920;-59
2023/04/20 11:43:47;;;;;;;;;;;18.10;64.70;;;;;;5069082;28;20333;-62
2023/04/20 11:46:14;;;;;;;;;;;18.50;60.70;;;;;;5063468;28;19921;-61
2023/04/20 11:48:40;;;;;;;;;;;18.20;61.20;;;;;;5065074;28;19924;-62
2023/04/20 11:51:05;;;;;;;;;;;18.40;61.30;;;;;;5064920;28;19912;-62
2023/04/20 11:53:31;;;;;;;;;;;18.30;59.60;;;;;;5067306;28;19921;-63
2023/04/20 11:55:56;;;;;;;;;;;18.60;58.70;;;;;;5067538;28;19912;-62
2023/04/20 11:58:22;;;;;;;;;;;18.70;57.20;;;;;;5061601;28;20019;-62
2023/04/20 12:00:48;;;;;;;;;;;19.00;57.00;;;;;;5068412;28;20376;-61
2023/04/20 12:03:13;;;;;;;;;;;19.20;55.20;;;;;;5061518;28;20321;-63
2023/04/20 12:05:39;;;;;;;;;;;19.10;55.60;;;;;;5060787;28;19992;-63
2023/04/20 12:08:07;;;;;;;;;;;19.00;55.20;;;;;;5067309;28;20317;-62
2023/04/20 12:10:32;;;;;;;;;;;19.30;55.20;;;;;;5062446;28;19927;-62
2023/04/20 12:12:59;;;;;;;;;;;19.20;54.20;;;;;;5061711;28;19920;-62
2023/04/20 12:15:25;;;;;;;;;;;19.10;54.00;;;;;;5062023;28;19912;-62
2023/04/20 12:17:51;;;;;;;;;;;18.90;53.70;;;;;;5063535;28;19965;-62
2023/04/20 12:20:17;;;;;;;;;;;18.60;54.70;;;;;;5062017;28;20379;-62
2023/04/20 12:22:42;;;;;;;;;;;18.10;55.50;;;;;;5070712;28;20003;-63
2023/04/20 12:25:08;;;;;;;;;;;18.10;55.40;;;;;;5059837;28;19951;-61
2023/04/20 12:27:34;;;;;;;;;;;18.30;56.90;;;;;;5065142;28;19925;-62
2023/04/20 12:29:59;;;;;;;;;;;18.70;57.10;;;;;;5064006;28;19921;-63
2023/04/20 12:32:25;;;;;;;;;;;19.00;57.00;;;;;;5058976;28;19923;-61
2023/04/20 12:34:51;;;;;;;;;;;19.10;55.60;;;;;;5068721;28;20364;-68
2023/04/20 12:37:16;;;;;;;;;;;19.10;53.90;;;;;;5058278;28;19912;-62
2023/04/20 12:39:42;;;;;;;;;;;18.70;54.30;;;;;;5058206;28;20424;-64
2023/04/20 12:42:07;;;;;;;;;;;19.00;54.10;;;;;;5053402;28;19913;-59
2023/04/20 12:44:33;;;;;;;;;;;19.30;54.50;;;;;;5059295;28;20948;-62
2023/04/20 12:46:59;;;;;;;;;;;19.80;53.10;;;;;;5059598;28;20153;-63
2023/04/20 12:49:24;;;;;;;;;;;20.20;52.20;;;;;;5062518;28;19920;-62
2023/04/20 12:51:50;;;;;;;;;;;20.40;51.50;;;;;;5063429;28;20007;-62
2023/04/20 12:54:16;;;;;;;;;;;20.60;50.80;;;;;;5059793;28;19917;-64
2023/04/20 12:56:42;;;;;;;;;;;20.70;51.20;;;;;;5066911;28;20284;-62
2023/04/20 12:59:07;;;;;;;;;;;20.70;51.00;;;;;;5061810;28;19912;-62
2023/04/20 13:01:33;;;;;;;;;;;20.70;51.00;;;;;;5059969;28;19927;-61
2023/04/20 13:03:59;;;;;;;;;;;21.20;49.60;;;;;;5068756;28;19920;-62
2023/04/20 13:06:25;;;;;;;;;;;21.10;49.60;;;;;;5064070;28;20016;-62
2023/04/20 13:08:50;;;;;;;;;;;21.10;47.30;;;;;;5064165;28;20015;-62
2023/04/20 13:11:16;;;;;;;;;;;20.90;48.60;;;;;;5069010;28;19995;-63
2023/04/20 13:13:42;;;;;;;;;;;21.40;46.90;;;;;;5065465;28;20031;-63
2023/04/20 13:16:08;;;;;;;;;;;21.40;46.40;;;;;;5071935;28;20336;-63
2023/04/20 13:18:34;;;;;;;;;;;21.20;47.10;;;;;;5067091;28;19922;-63
2023/04/20 13:21:00;;;;;;;;;;;21.00;48.00;;;;;;5073920;28;19913;-63
2023/04/20 13:23:25;;;;;;;;;;;21.20;47.10;;;;;;5069295;28;19963;-62
2023/04/20 13:25:51;;;;;;;;;;;21.30;47.40;;;;;;5061054;28;19912;-63
2023/04/20 13:28:17;;;;;;;;;;;21.20;46.20;;;;;;5056622;28;19983;-61
2023/04/20 13:30:43;;;;;;;;;;;21.20;46.90;;;;;;5062033;28;20268;-62
2023/04/20 13:33:09;;;;;;;;;;;21.70;46.90;;;;;;5069035;28;19932;-62
2023/04/20 13:35:35;;;;;;;;;;;21.90;45.80;;;;;;5072292;28;20007;-61
2023/04/20 13:38:01;;;;;;;;;;;21.90;45.90;;;;;;5069288;28;19981;-62
2023/04/20 13:40:26;;;;;;;;;;;21.80;44.90;;;;;;5068910;28;20311;-63
2023/04/20 13:42:52;;;;;;;;;;;21.90;44.40;;;;;;5062366;28;19939;-63
2023/04/20 13:45:18;;;;;;;;;;;22.00;45.00;;;;;;5067874;28;19924;-63
2023/04/20 13:47:46;;;;;;;;;;;22.00;45.60;;;;;;5076009;28;21406;-62
2023/04/20 13:50:11;;;;;;;;;;;21.90;44.50;;;;;;5064265;28;19936;-64
2023/04/20 13:52:37;;;;;;;;;;;22.20;43.80;;;;;;5064139;28;19913;-63
2023/04/20 13:55:03;;;;;;;;;;;22.40;42.90;;;;;;5073926;28;19921;-63
2023/04/20 13:57:30;;;;;;;;;;;22.70;44.10;;;;;;5066221;28;20364;-63
2023/04/20 13:59:56;;;;;;;;;;;23.40;43.20;;;;;;5067781;28;19924;-62
2023/04/20 14:02:23;;;;;;;;;;;23.40;41.90;;;;;;5063349;28;19929;-62
2023/04/20 14:04:49;;;;;;;;;;;23.50;43.40;;;;;;5071433;28;20291;-63
2023/04/20 14:07:15;;;;;;;;;;;22.90;43.50;;;;;;5067387;28;20306;-62
2023/04/20 14:09:43;;;;;;;;;;;22.80;42.70;;;;;;5070108;28;19927;-63
2023/04/20 14:12:09;;;;;;;;;;;23.80;42.30;;;;;;5063935;28;19912;-61
2023/04/20 14:14:34;;;;;;;;;;;24.40;41.80;;;;;;5062785;28;19952;-63
2023/04/20 14:17:00;;;;;;;;;;;24.60;40.90;;;;;;5065307;28;20275;-62